Time;durP1;ratioP1;P1;durP2;ratioP2;P2;SDS_P1;SDS_P2;PMS_P1;PMS_P2;Temp;Humidity;BMP_temperature;BMP_pressure;BME280_temperature;BME280_humidity;BME280_pressure;Samples;Min_cycle;Max_cycle;Signal;HPM_P1;HPM_P2
2023/03/15 00:00:02;;;;;;;16.20;4.00;;;3.10;99.90;;;;;;5054104;28;20040;-64
2023/03/15 00:02:28;;;;;;;17.70;3.58;;;3.20;99.90;;;;;;5054285;28;20529;-64
2023/03/15 00:04:53;;;;;;;18.23;3.85;;;3.30;99.90;;;;;;5053717;28;20046;-64
2023/03/15 00:07:24;;;;;;;12.68;3.65;;;3.30;99.90;;;;;;5054115;28;20078;-64
2023/03/15 00:09:50;;;;;;;17.25;3.72;;;3.40;99.90;;;;;;5054118;28;20017;-64
2023/03/15 00:12:16;;;;;;;16.42;3.70;;;3.40;99.90;;;;;;5053868;28;20449;-64
2023/03/15 00:14:41;;;;;;;13.55;3.65;;;3.50;99.90;;;;;;5053963;28;20033;-64
2023/03/15 00:17:07;;;;;;;18.23;4.15;;;3.40;99.90;;;;;;5054041;28;20113;-63
2023/03/15 00:19:33;;;;;;;18.80;4.32;;;3.50;99.90;;;;;;5053897;28;20481;-63
2023/03/15 00:21:58;;;;;;;15.70;3.90;;;3.70;99.90;;;;;;5053742;28;20025;-64
2023/03/15 00:24:24;;;;;;;17.77;3.95;;;3.70;99.90;;;;;;5053813;28;20029;-63
2023/03/15 00:26:49;;;;;;;19.65;4.20;;;3.70;99.90;;;;;;5053678;28;20036;-64
2023/03/15 00:29:15;;;;;;;17.17;5.18;;;3.60;99.90;;;;;;5053701;28;20021;-63
2023/03/15 00:31:40;;;;;;;18.55;4.43;;;3.50;99.90;;;;;;5053516;28;20497;-64
2023/03/15 00:34:06;;;;;;;14.02;4.65;;;3.30;99.90;;;;;;5053651;28;20044;-64
2023/03/15 00:36:31;;;;;;;13.73;4.10;;;2.90;99.90;;;;;;5053495;28;20040;-64
2023/03/15 00:38:57;;;;;;;9.55;3.63;;;2.70;99.90;;;;;;5053703;28;20028;-64
2023/03/15 00:41:23;;;;;;;11.75;3.53;;;2.50;99.90;;;;;;5053646;28;20021;-63
2023/03/15 00:43:48;;;;;;;13.43;3.97;;;2.10;99.90;;;;;;5053580;28;20035;-63
2023/03/15 00:46:15;;;;;;;16.63;4.40;;;2.00;99.90;;;;;;5053276;28;20035;-63
2023/03/15 00:48:41;;;;;;;10.82;3.50;;;1.90;99.90;;;;;;5053253;28;20032;-64
2023/03/15 00:51:11;;;;;;;13.70;4.47;;;1.90;99.90;;;;;;5053465;28;20022;-65
2023/03/15 00:53:38;;;;;;;10.95;3.75;;;2.00;99.90;;;;;;5053503;28;20036;-70
2023/03/15 00:56:05;;;;;;;9.82;3.92;;;2.00;99.90;;;;;;5053370;28;20025;-63
2023/03/15 00:58:31;;;;;;;19.10;4.20;;;1.90;99.90;;;;;;5053143;28;20095;-63
2023/03/15 01:00:56;;;;;;;16.48;3.50;;;1.80;99.90;;;;;;5052987;28;20033;-64
2023/03/15 01:03:22;;;;;;;8.32;3.65;;;1.70;99.90;;;;;;5053114;28;20032;-64
2023/03/15 01:05:47;;;;;;;12.88;3.75;;;1.50;99.90;;;;;;5052687;28;20053;-64
2023/03/15 01:08:13;;;;;;;11.88;3.20;;;1.40;99.90;;;;;;5053182;28;20391;-64
2023/03/15 01:10:39;;;;;;;11.60;3.53;;;1.40;99.90;;;;;;5053166;28;20021;-64
2023/03/15 01:13:06;;;;;;;10.57;3.72;;;1.30;99.90;;;;;;5052996;28;20098;-66
2023/03/15 01:15:31;;;;;;;10.35;3.70;;;1.30;99.90;;;;;;5053207;28;20021;-64
2023/03/15 01:17:57;;;;;;;9.82;4.03;;;1.20;99.90;;;;;;5052972;28;20029;-65
2023/03/15 01:20:22;;;;;;;11.38;4.25;;;1.30;99.90;;;;;;5053031;28;20124;-64
2023/03/15 01:22:48;;;;;;;9.63;4.32;;;1.20;99.90;;;;;;5052982;28;20040;-64
2023/03/15 01:25:13;;;;;;;14.68;4.82;;;1.20;99.90;;;;;;5052776;28;20065;-64
2023/03/15 01:27:39;;;;;;;14.75;5.32;;;1.20;99.90;;;;;;5052981;28;20104;-64
2023/03/15 01:30:05;;;;;;;9.60;5.13;;;1.20;99.90;;;;;;5052860;28;20410;-64
2023/03/15 01:32:31;;;;;;;20.55;7.43;;;1.20;99.90;;;;;;5053006;28;20025;-64
2023/03/15 01:34:57;;;;;;;25.23;9.48;;;;;;;;;;5053043;28;20032;-64
2023/03/15 01:37:23;;;;;;;30.67;11.77;;;1.20;99.90;;;;;;5053081;28;20451;-64
2023/03/15 01:39:49;;;;;;;29.65;13.75;;;1.20;99.90;;;;;;5052814;28;20077;-65
2023/03/15 01:42:15;;;;;;;34.88;15.23;;;1.30;99.90;;;;;;5053011;28;20029;-64
2023/03/15 01:44:53;;;;;;;42.92;17.75;;;1.30;99.90;;;;;;5052932;28;20088;-65
2023/03/15 01:47:19;;;;;;;46.42;18.48;;;1.30;99.90;;;;;;5052868;28;20052;-64
2023/03/15 01:49:50;;;;;;;44.97;18.33;;;1.40;99.90;;;;;;5052887;28;20103;-64
2023/03/15 01:52:22;;;;;;;44.63;17.83;;;1.40;99.90;;;;;;5052750;28;20505;-64
2023/03/15 01:54:54;;;;;;;50.85;19.33;;;1.50;99.90;;;;;;5052515;28;20036;-64
2023/03/15 01:57:29;;;;;;;53.40;18.17;;;1.50;99.90;;;;;;5052736;28;20036;-64
2023/03/15 02:00:01;;;;;;;44.67;17.58;;;1.50;99.90;;;;;;5051661;28;20068;-64
2023/03/15 02:02:27;;;;;;;43.60;17.00;;;1.50;99.90;;;;;;5052726;28;20037;-64
2023/03/15 02:05:03;;;;;;;41.28;16.25;;;1.60;99.90;;;;;;5052343;28;20048;-64
2023/03/15 02:07:33;;;;;;;38.90;15.95;;;1.50;99.90;;;;;;5052555;28;20075;-64
2023/03/15 02:10:07;;;;;;;44.05;16.70;;;1.60;99.90;;;;;;5052403;28;20029;-64
2023/03/15 02:12:37;;;;;;;48.50;16.50;;;1.60;99.90;;;;;;5054116;28;20048;-64
2023/03/15 02:15:04;;;;;;;50.55;18.05;;;1.60;99.90;;;;;;5056237;28;20045;-64
2023/03/15 02:17:37;;;;;;;45.58;17.88;;;1.70;99.90;;;;;;5056114;28;20390;-64
2023/03/15 02:23:07;;;;;;;40.63;17.23;;;1.80;99.90;;;;;;5111179;27;20380;-64
2023/03/15 02:28:23;;;;;;;44.30;19.23;;;1.90;99.90;;;;;;5070635;28;20379;-63
2023/03/15 02:30:50;;;;;;;47.80;19.08;;;1.90;99.90;;;;;;5070478;28;20453;-63
2023/03/15 02:33:28;;;;;;;44.72;18.42;;;2.00;99.90;;;;;;5070842;28;20120;-63
2023/03/15 02:35:55;;;;;;;41.53;17.25;;;2.00;99.90;;;;;;5070705;28;20044;-63
2023/03/15 02:38:21;;;;;;;40.53;18.80;;;2.00;99.90;;;;;;5070434;28;20021;-63
2023/03/15 02:40:49;;;;;;;38.45;19.45;;;2.10;99.90;;;;;;5070449;28;20033;-63
2023/03/15 02:43:19;;;;;;;36.20;19.42;;;2.10;99.90;;;;;;5070491;28;20028;-64
2023/03/15 02:45:45;;;;;;;48.17;19.40;;;2.10;99.90;;;;;;5070371;28;20568;-63
2023/03/15 02:48:12;;;;;;;39.60;18.27;;;2.10;99.90;;;;;;5070223;28;20082;-63
2023/03/15 02:50:38;;;;;;;32.80;17.27;;;2.20;99.90;;;;;;5070369;28;20104;-63
2023/03/15 02:53:04;;;;;;;25.35;14.70;;;2.30;99.90;;;;;;5070387;28;20559;-63
2023/03/15 02:55:33;;;;;;;28.35;13.68;;;2.30;99.90;;;;;;5070136;28;20024;-63
2023/03/15 02:58:00;;;;;;;27.38;14.65;;;2.30;99.90;;;;;;5070091;28;20089;-63
2023/03/15 03:00:26;;;;;;;23.17;12.48;;;2.40;99.90;;;;;;5069963;28;20446;-63
2023/03/15 03:02:51;;;;;;;24.35;13.68;;;2.40;99.90;;;;;;5070014;28;20560;-63
2023/03/15 03:05:17;;;;;;;28.45;14.70;;;2.40;99.90;;;;;;5070249;28;20135;-63
2023/03/15 03:07:43;;;;;;;28.88;15.77;;;2.40;99.90;;;;;;5069769;28;20123;-64
2023/03/15 03:10:12;;;;;;;32.78;16.88;;;2.40;99.90;;;;;;5069943;28;20029;-63
2023/03/15 03:12:38;;;;;;;32.67;17.80;;;2.40;99.90;;;;;;5069898;28;20021;-63
2023/03/15 03:15:04;;;;;;;35.08;19.23;;;2.50;99.90;;;;;;5068441;28;20108;-63
2023/03/15 03:17:30;;;;;;;34.75;21.25;;;2.50;99.90;;;;;;5069592;28;20483;-63
2023/03/15 03:19:56;;;;;;;43.05;22.15;;;2.50;99.90;;;;;;5069776;28;20044;-63
2023/03/15 03:22:23;;;;;;;43.80;21.90;;;2.50;99.90;;;;;;5069606;28;20390;-63
2023/03/15 03:24:50;;;;;;;45.90;23.50;;;2.60;99.90;;;;;;5069676;28;20056;-63
2023/03/15 03:27:16;;;;;;;41.95;21.95;;;2.50;99.90;;;;;;5069179;28;20110;-63
2023/03/15 03:29:42;;;;;;;42.97;22.60;;;2.60;99.90;;;;;;5068309;28;20421;-63
2023/03/15 03:32:08;;;;;;;39.80;22.48;;;2.60;99.90;;;;;;5069496;28;20031;-63
2023/03/15 03:34:34;;;;;;;40.53;22.85;;;2.60;99.90;;;;;;5069116;28;20021;-63
2023/03/15 03:36:59;;;;;;;40.63;22.52;;;2.60;99.90;;;;;;5069113;28;20036;-63
2023/03/15 03:39:25;;;;;;;46.00;24.17;;;2.60;99.90;;;;;;5057933;28;20040;-63
2023/03/15 03:41:51;;;;;;;42.05;22.08;;;2.60;99.90;;;;;;5056145;28;20036;-63
2023/03/15 03:44:16;;;;;;;38.50;22.63;;;2.60;99.90;;;;;;5055956;28;20025;-63
2023/03/15 03:46:42;;;;;;;43.22;23.35;;;2.60;99.90;;;;;;5055835;28;20494;-63
2023/03/15 03:49:08;;;;;;;44.78;23.77;;;2.60;99.90;;;;;;5055955;28;20025;-63
2023/03/15 03:51:34;;;;;;;39.70;21.67;;;2.60;99.90;;;;;;5055769;28;20035;-63
2023/03/15 03:54:01;;;;;;;37.75;21.90;;;2.60;99.90;;;;;;5055694;28;20106;-63
2023/03/15 03:56:26;;;;;;;40.67;21.27;;;2.60;99.90;;;;;;5055869;28;20042;-63
2023/03/15 03:58:52;;;;;;;48.95;23.38;;;2.60;99.90;;;;;;5055888;28;20032;-63
2023/03/15 04:01:17;;;;;;;47.83;22.65;;;2.60;99.90;;;;;;5055406;28;20083;-63
2023/03/15 04:03:43;;;;;;;42.95;22.50;;;2.60;99.90;;;;;;5055598;28;20040;-64
2023/03/15 04:06:08;;;;;;;43.47;22.30;;;2.60;99.90;;;;;;5055493;28;20021;-63
2023/03/15 04:08:34;;;;;;;40.72;20.88;;;2.60;99.90;;;;;;5055454;28;20475;-64
2023/03/15 04:11:02;;;;;;;39.70;21.52;;;2.60;99.90;;;;;;5055400;28;20426;-63
2023/03/15 04:13:30;;;;;;;39.28;20.85;;;2.60;99.90;;;;;;5055432;28;20021;-63
2023/03/15 04:15:56;;;;;;;36.30;20.90;;;2.60;99.90;;;;;;5055521;28;20132;-63
2023/03/15 04:18:22;;;;;;;37.03;19.63;;;2.60;99.90;;;;;;5055291;28;20052;-63
2023/03/15 04:20:48;;;;;;;34.28;19.70;;;2.60;99.90;;;;;;5055136;28;20036;-64
2023/03/15 04:23:14;;;;;;;35.92;19.98;;;2.60;99.90;;;;;;5055254;28;20029;-64
2023/03/15 04:25:41;;;;;;;37.78;18.50;;;2.60;99.90;;;;;;5054087;28;20025;-63
2023/03/15 04:28:09;;;;;;;33.70;19.40;;;2.60;99.90;;;;;;5054613;28;20049;-63
2023/03/15 04:30:35;;;;;;;31.45;17.90;;;2.70;99.90;;;;;;5055032;28;20415;-63
2023/03/15 04:33:02;;;;;;;34.75;18.02;;;2.70;99.90;;;;;;5055165;28;20029;-63
2023/03/15 04:35:31;;;;;;;31.30;17.65;;;2.70;99.90;;;;;;5055084;28;20025;-63
2023/03/15 04:37:57;;;;;;;30.35;16.33;;;2.70;99.90;;;;;;5054902;28;20075;-63
2023/03/15 04:40:24;;;;;;;28.58;16.42;;;2.70;99.90;;;;;;5055050;28;20509;-63
2023/03/15 04:42:51;;;;;;;32.28;17.33;;;2.70;99.90;;;;;;5054842;28;20395;-63
2023/03/15 04:45:17;;;;;;;29.67;15.02;;;2.70;99.90;;;;;;5054980;28;20025;-64
2023/03/15 04:47:43;;;;;;;29.02;15.70;;;2.70;99.90;;;;;;5054777;28;20036;-64
2023/03/15 04:50:09;;;;;;;27.50;15.70;;;2.70;99.90;;;;;;5053523;28;20461;-63
2023/03/15 04:52:35;;;;;;;30.20;15.73;;;2.70;99.90;;;;;;5054579;28;20028;-63
2023/03/15 04:55:00;;;;;;;28.95;15.63;;;2.70;99.90;;;;;;5054727;28;20391;-63
2023/03/15 04:57:26;;;;;;;28.02;15.20;;;2.70;99.90;;;;;;5054454;28;20029;-63
2023/03/15 04:59:51;;;;;;;28.42;14.80;;;2.70;99.90;;;;;;5054309;28;20021;-63
2023/03/15 05:02:17;;;;;;;28.45;14.38;;;2.70;99.90;;;;;;5054212;28;20029;-65
2023/03/15 05:04:43;;;;;;;29.27;14.40;;;2.70;99.90;;;;;;5054557;28;20079;-63
2023/03/15 05:07:08;;;;;;;25.85;14.25;;;2.70;99.90;;;;;;5054271;28;20036;-63
2023/03/15 05:09:37;;;;;;;28.35;14.85;;;2.70;99.90;;;;;;5054384;28;20021;-63
2023/03/15 05:12:04;;;;;;;29.67;14.75;;;2.70;99.90;;;;;;5054217;28;20025;-63
2023/03/15 05:14:30;;;;;;;27.45;15.15;;;2.70;99.90;;;;;;5054159;28;20078;-63
2023/03/15 05:16:57;;;;;;;27.05;14.25;;;2.60;99.90;;;;;;5054140;28;20033;-63
2023/03/15 05:19:23;;;;;;;22.35;13.02;;;2.60;99.90;;;;;;5054150;28;20025;-63
2023/03/15 05:21:48;;;;;;;24.50;12.93;;;2.50;99.90;;;;;;5054240;28;20505;-64
2023/03/15 05:24:14;;;;;;;24.92;12.65;;;2.50;99.90;;;;;;5054256;28;20372;-65
2023/03/15 05:26:40;;;;;;;26.20;12.50;;;2.50;99.90;;;;;;5053942;28;20083;-64
2023/03/15 05:29:05;;;;;;;23.30;12.77;;;2.40;99.90;;;;;;5053877;28;20032;-64
2023/03/15 05:31:35;;;;;;;21.30;12.25;;;2.40;99.90;;;;;;5054038;28;20494;-64
2023/03/15 05:34:03;;;;;;;26.92;12.73;;;2.40;99.90;;;;;;5053992;28;20032;-64
2023/03/15 05:36:29;;;;;;;22.27;12.52;;;2.40;99.90;;;;;;5053510;28;20021;-63
2023/03/15 05:38:55;;;;;;;26.85;12.93;;;2.30;99.90;;;;;;5053867;28;20552;-64
2023/03/15 05:41:21;;;;;;;21.85;12.32;;;2.30;99.90;;;;;;5053976;28;20067;-64
2023/03/15 05:43:46;;;;;;;24.88;12.80;;;2.40;99.90;;;;;;5053769;28;20025;-63
2023/03/15 05:46:12;;;;;;;21.50;12.48;;;2.40;99.90;;;;;;5053665;28;20167;-63
2023/03/15 05:48:38;;;;;;;27.05;14.30;;;2.40;99.90;;;;;;5052354;28;20469;-63
2023/03/15 05:51:04;;;;;;;25.58;13.50;;;2.40;99.90;;;;;;5053719;28;20106;-63
2023/03/15 05:53:29;;;;;;;23.67;13.00;;;2.40;99.90;;;;;;5053458;28;20029;-63
2023/03/15 05:55:55;;;;;;;25.60;12.38;;;2.40;99.90;;;;;;5053460;28;20029;-63
2023/03/15 05:58:20;;;;;;;26.17;12.57;;;2.40;99.90;;;;;;5053417;28;20025;-63
2023/03/15 06:00:46;;;;;;;26.85;13.40;;;2.40;99.90;;;;;;5053366;28;20116;-64
2023/03/15 06:03:11;;;;;;;27.48;13.48;;;2.40;99.90;;;;;;5053305;28;20086;-64
2023/03/15 06:05:37;;;;;;;34.90;15.23;;;2.40;99.90;;;;;;5053277;28;20033;-64
2023/03/15 06:08:03;;;;;;;23.38;13.50;;;2.40;99.90;;;;;;5053144;28;20048;-64
2023/03/15 06:10:28;;;;;;;42.58;23.98;;;2.40;99.90;;;;;;5053235;28;20111;-64
2023/03/15 06:12:54;;;;;;;36.75;19.02;;;2.40;99.90;;;;;;5053525;28;20029;-64
2023/03/15 06:15:19;;;;;;;29.50;14.52;;;2.40;99.90;;;;;;5053259;28;20100;-65
2023/03/15 06:17:46;;;;;;;31.23;16.48;;;2.40;99.90;;;;;;5053420;28;20485;-64
2023/03/15 06:20:12;;;;;;;30.55;15.52;;;2.30;99.90;;;;;;5053235;28;20089;-64
2023/03/15 06:22:37;;;;;;;25.08;13.43;;;2.40;99.90;;;;;;5053090;28;20029;-64
2023/03/15 06:25:03;;;;;;;25.45;12.52;;;2.40;99.90;;;;;;5052981;28;20586;-64
2023/03/15 06:27:29;;;;;;;25.92;12.90;;;2.40;99.90;;;;;;5052884;28;20124;-64
2023/03/15 06:29:56;;;;;;;25.73;12.73;;;2.40;99.90;;;;;;5053172;28;20033;-64
2023/03/15 06:32:21;;;;;;;25.80;12.35;;;2.40;99.90;;;;;;5053026;28;20448;-64
2023/03/15 06:34:47;;;;;;;28.23;12.70;;;2.40;99.90;;;;;;5053002;28;20079;-64
2023/03/15 06:37:12;;;;;;;26.63;13.35;;;2.40;99.90;;;;;;5052859;28;20422;-64
2023/03/15 06:39:39;;;;;;;25.77;13.02;;;2.50;99.90;;;;;;5052795;28;20040;-67
2023/03/15 06:42:07;;;;;;;28.85;12.55;;;2.50;99.90;;;;;;5053035;28;20037;-64
2023/03/15 06:44:33;;;;;;;29.60;13.27;;;2.60;99.90;;;;;;5053065;28;20046;-64
2023/03/15 06:46:59;;;;;;;28.23;12.82;;;2.60;99.90;;;;;;5052813;28;20056;-64
2023/03/15 06:49:24;;;;;;;24.83;12.85;;;2.80;99.90;;;;;;5052936;28;20045;-64
2023/03/15 06:51:50;;;;;;;32.92;15.77;;;2.90;99.90;;;;;;5052463;28;20017;-64
2023/03/15 06:54:16;;;;;;;116.00;54.17;;;3.10;99.90;;;;;;5052732;28;20079;-65
2023/03/15 06:56:42;;;;;;;28.10;16.17;;;3.10;99.90;;;;;;5052838;28;20036;-64
2023/03/15 06:59:07;;;;;;;34.28;19.10;;;3.30;99.90;;;;;;5052949;28;20049;-64
2023/03/15 07:01:33;;;;;;;28.30;14.73;;;3.40;99.90;;;;;;5052686;28;20061;-65
2023/03/15 07:03:58;;;;;;;49.50;26.50;;;3.40;99.90;;;;;;5052562;28;20455;-66
2023/03/15 07:06:26;;;;;;;46.42;22.90;;;3.40;99.90;;;;;;5052611;28;20033;-64
2023/03/15 07:08:51;;;;;;;24.45;12.68;;;3.40;99.90;;;;;;5052315;28;20021;-64
2023/03/15 07:11:17;;;;;;;19.52;11.18;;;3.30;99.90;;;;;;5052696;28;20047;-64
2023/03/15 07:13:42;;;;;;;29.05;17.85;;;3.30;99.90;;;;;;5054078;28;20053;-64
2023/03/15 07:16:08;;;;;;;31.83;17.60;;;3.40;99.90;;;;;;5056181;28;20135;-64
2023/03/15 07:18:34;;;;;;;26.80;14.32;;;3.50;99.90;;;;;;5055167;28;20471;-64
2023/03/15 07:21:03;;;;;;;28.25;12.20;;;3.50;99.90;;;;;;5056458;28;20025;-64
2023/03/15 07:23:29;;;;;;;22.27;11.48;;;3.60;99.90;;;;;;5055133;28;20029;-64
2023/03/15 07:25:55;;;;;;;19.38;11.50;;;3.70;99.90;;;;;;5056229;28;20110;-64
2023/03/15 07:28:22;;;;;;;19.23;10.38;;;3.70;99.90;;;;;;5055786;28;20072;-64
2023/03/15 07:30:55;;;;;;;18.73;10.13;;;3.90;99.90;;;;;;5055831;28;20433;-64
2023/03/15 07:33:21;;;;;;;20.55;10.60;;;4.20;99.90;;;;;;5056153;28;20029;-64
2023/03/15 07:35:49;;;;;;;17.98;8.70;;;4.40;99.90;;;;;;5056039;28;20025;-64
2023/03/15 07:38:14;;;;;;;15.55;9.15;;;4.40;99.90;;;;;;5056177;28;20111;-64
2023/03/15 07:40:40;;;;;;;14.82;8.85;;;5.10;99.90;;;;;;5056034;28;20075;-64
2023/03/15 07:43:05;;;;;;;14.38;8.43;;;6.10;99.90;;;;;;5055879;28;20037;-64
2023/03/15 07:45:31;;;;;;;12.35;8.65;;;6.80;99.90;;;;;;5055986;28;20060;-64
2023/03/15 07:47:57;;;;;;;12.00;8.23;;;7.10;99.90;;;;;;5055838;28;20025;-64
2023/03/15 07:50:22;;;;;;;11.18;7.43;;;6.80;99.90;;;;;;5055657;28;20029;-64
2023/03/15 07:52:48;;;;;;;17.63;8.50;;;6.50;99.90;;;;;;5055759;28;20025;-64
2023/03/15 07:55:13;;;;;;;14.07;7.65;;;6.40;99.90;;;;;;5055716;28;20412;-66
2023/03/15 07:57:39;;;;;;;12.90;8.07;;;5.80;99.90;;;;;;5055740;28;20145;-64
2023/03/15 08:00:05;;;;;;;15.70;7.75;;;5.50;99.90;;;;;;5055659;28;20086;-64
2023/03/15 08:02:31;;;;;;;12.98;7.45;;;5.30;99.90;;;;;;5055456;28;20021;-64
2023/03/15 08:04:57;;;;;;;14.38;8.15;;;5.10;99.90;;;;;;5055535;28;20060;-64
2023/03/15 08:07:23;;;;;;;16.30;8.15;;;5.30;99.90;;;;;;5055242;28;20025;-64
2023/03/15 08:09:48;;;;;;;14.90;8.98;;;5.60;99.90;;;;;;5055397;28;20047;-65
2023/03/15 08:12:14;;;;;;;12.90;8.20;;;5.40;99.90;;;;;;5055332;28;20021;-65
2023/03/15 08:14:39;;;;;;;19.00;9.13;;;5.30;99.90;;;;;;5055426;28;20029;-65
2023/03/15 08:17:05;;;;;;;15.65;8.20;;;5.40;99.90;;;;;;5055005;28;20379;-65
2023/03/15 08:19:31;;;;;;;18.88;8.05;;;5.70;99.90;;;;;;5055151;28;20403;-65
2023/03/15 08:21:56;;;;;;;13.25;7.95;;;5.80;99.90;;;;;;5055264;28;20033;-65
2023/03/15 08:24:22;;;;;;;11.32;6.88;;;5.30;99.90;;;;;;5055205;28;20028;-65
2023/03/15 08:26:47;;;;;;;13.57;7.53;;;5.90;99.90;;;;;;5054775;28;20049;-65
2023/03/15 08:29:14;;;;;;;16.05;7.65;;;6.80;99.90;;;;;;5055073;28;20036;-65
2023/03/15 08:31:40;;;;;;;15.27;7.95;;;7.00;99.90;;;;;;5054767;28;20021;-65
2023/03/15 08:34:06;;;;;;;15.30;7.70;;;6.50;99.90;;;;;;5054765;28;20021;-65
2023/03/15 08:36:32;;;;;;;13.68;7.50;;;6.50;99.90;;;;;;5054737;28;20025;-65
2023/03/15 08:38:58;;;;;;;16.08;8.07;;;6.00;99.90;;;;;;5054804;28;20035;-65
2023/03/15 08:41:23;;;;;;;18.00;7.30;;;6.10;99.90;;;;;;5054953;28;20029;-65
2023/03/15 08:43:49;;;;;;;15.15;6.80;;;5.80;99.90;;;;;;5054732;28;20479;-65
2023/03/15 08:46:16;;;;;;;10.65;6.20;;;6.90;99.90;;;;;;5054679;28;20021;-65
2023/03/15 08:48:41;;;;;;;11.85;7.05;;;7.70;99.90;;;;;;5054574;28;20025;-65
2023/03/15 08:51:07;;;;;;;12.02;6.95;;;7.30;99.90;;;;;;5054466;28;20074;-65
2023/03/15 08:53:34;;;;;;;12.23;6.22;;;8.10;99.90;;;;;;5054673;28;20387;-65
2023/03/15 08:55:59;;;;;;;12.98;6.40;;;8.50;99.90;;;;;;5054957;28;20450;-65
2023/03/15 08:58:25;;;;;;;20.40;9.18;;;8.80;99.90;;;;;;5054411;28;20039;-65
2023/03/15 09:00:51;;;;;;;11.00;5.43;;;9.10;99.90;;;;;;5054670;28;20032;-65
2023/03/15 09:03:18;;;;;;;11.98;5.85;;;8.70;99.90;;;;;;5054483;28;20036;-65
2023/03/15 09:05:44;;;;;;;13.10;7.82;;;7.50;99.90;;;;;;5052968;28;20025;-65
2023/03/15 09:08:09;;;;;;;13.65;6.72;;;7.70;99.90;;;;;;5053835;28;20037;-65
2023/03/15 09:10:35;;;;;;;16.77;8.05;;;7.30;99.90;;;;;;5054184;28;20066;-65
2023/03/15 09:13:00;;;;;;;16.67;5.88;;;7.10;99.90;;;;;;5054261;28;20032;-65
2023/03/15 09:15:26;;;;;;;13.75;6.30;;;7.80;99.90;;;;;;5054045;28;20021;-65
2023/03/15 09:17:51;;;;;;;17.08;7.03;;;8.20;99.90;;;;;;5054014;28;20043;-65
2023/03/15 09:20:20;;;;;;;14.75;6.38;;;8.40;99.90;;;;;;5054161;28;20040;-65
2023/03/15 09:22:51;;;;;;;15.18;5.60;;;9.30;99.90;;;;;;5053889;28;20029;-65
2023/03/15 09:25:17;;;;;;;13.32;5.25;;;9.30;99.90;;;;;;5053885;28;20075;-65
2023/03/15 09:27:42;;;;;;;16.00;5.80;;;9.10;99.90;;;;;;5053635;28;20414;-65
2023/03/15 09:30:09;;;;;;;13.80;5.60;;;8.50;99.90;;;;;;5053681;28;20060;-65
2023/03/15 09:32:35;;;;;;;13.82;5.20;;;8.10;99.90;;;;;;5053678;28;20025;-65
2023/03/15 09:35:02;;;;;;;14.25;6.38;;;8.70;99.90;;;;;;5053565;28;20053;-65
2023/03/15 09:37:28;;;;;;;14.88;5.25;;;8.60;99.90;;;;;;5053455;28;20029;-65
2023/03/15 09:39:53;;;;;;;10.35;5.15;;;9.80;99.90;;;;;;5053610;28;20028;-65
2023/03/15 09:42:27;;;;;;;14.52;4.57;;;10.40;99.90;;;;;;5053566;28;20033;-66
2023/03/15 09:45:09;;;;;;;14.40;5.20;;;10.60;99.90;;;;;;5053587;28;20036;-65
2023/03/15 09:48:04;;;;;;;12.82;4.90;;;9.80;99.90;;;;;;5053514;28;20040;-65
2023/03/15 09:50:35;;;;;;;12.18;5.47;;;9.00;99.90;;;;;;5053221;28;20021;-65
2023/03/15 09:53:12;;;;;;;35.72;17.52;;;8.60;99.90;;;;;;5053367;28;20036;-65
2023/03/15 09:55:38;;;;;;;13.30;4.88;;;8.50;99.90;;;;;;5053314;28;20032;-65
2023/03/15 09:58:11;;;;;;;15.95;4.60;;;9.00;99.90;;;;;;5053296;28;20114;-65
2023/03/15 10:00:46;;;;;;;9.77;4.47;;;10.10;99.90;;;;;;5053374;28;20359;-65
2023/03/15 10:03:27;;;;;;;13.68;3.95;;;10.50;99.90;;;;;;5053159;28;20037;-65
2023/03/15 10:05:57;;;;;;;11.68;4.35;;;9.80;99.90;;;;;;5053295;28;20025;-65
2023/03/15 10:08:23;;;;;;;11.50;4.18;;;9.50;99.90;;;;;;5053000;28;20557;-64
2023/03/15 10:11:22;;;;;;;11.80;4.53;;;10.40;99.90;;;;;;5053310;28;20025;-65
2023/03/15 10:14:16;;;;;;;12.70;5.00;;;10.70;99.90;;;;;;5053358;28;20035;-64
2023/03/15 10:16:45;;;;;;;11.35;4.40;;;9.60;99.90;;;;;;5051963;28;20032;-64
2023/03/15 10:19:35;;;;;;;11.45;4.20;;;9.30;99.90;;;;;;5053267;28;20033;-65
2023/03/15 10:22:14;;;;;;;7.38;3.63;;;10.20;99.90;;;;;;5053042;28;20071;-65
2023/03/15 10:24:46;;;;;;;8.43;3.38;;;10.90;99.90;;;;;;5053042;28;20033;-64
2023/03/15 10:27:24;;;;;;;14.25;4.20;;;10.60;99.90;;;;;;5052697;28;20052;-64
2023/03/15 10:29:53;;;;;;;16.92;4.30;;;10.50;99.90;;;;;;5052563;28;20025;-64
2023/03/15 10:32:24;;;;;;;10.50;4.30;;;9.80;99.90;;;;;;5053012;28;20028;-66
2023/03/15 10:34:53;;;;;;;18.42;4.85;;;9.00;99.90;;;;;;5053069;28;20075;-64
2023/03/15 10:37:23;;;;;;;14.40;4.43;;;8.30;99.90;;;;;;5053277;28;20079;-64
2023/03/15 10:39:54;;;;;;;17.00;4.75;;;8.30;99.90;;;;;;5052839;28;20031;-64
2023/03/15 10:42:29;;;;;;;14.57;4.28;;;7.70;99.90;;;;;;5052888;28;20128;-64
2023/03/15 10:44:56;;;;;;;12.93;4.40;;;7.40;99.90;;;;;;5052815;28;20037;-64
2023/03/15 10:47:24;;;;;;;11.27;3.90;;;7.60;99.90;;;;;;5052664;28;20442;-64
2023/03/15 10:49:56;;;;;;;12.40;4.00;;;8.40;99.90;;;;;;5056029;28;20021;-65
2023/03/15 10:52:43;;;;;;;12.02;3.75;;;9.40;99.90;;;;;;5056991;28;20032;-65
2023/03/15 10:55:14;;;;;;;15.82;4.30;;;10.20;99.90;;;;;;5056841;28;20497;-64
2023/03/15 10:57:53;;;;;;;12.02;3.58;;;9.90;99.90;;;;;;5056660;28;20180;-64
2023/03/15 11:00:31;;;;;;;12.68;4.20;;;9.90;99.90;;;;;;5056617;28;20029;-66
2023/03/15 11:03:16;;;;;;;7.47;2.80;;;9.80;99.90;;;;;;5056471;28;20032;-63
2023/03/15 11:05:44;;;;;;;9.90;2.70;;;10.30;99.90;;;;;;5056567;28;20025;-64
2023/03/15 11:08:13;;;;;;;9.48;3.13;;;10.60;99.90;;;;;;5056241;28;20387;-64
2023/03/15 11:10:39;;;;;;;10.43;3.83;;;;;;;;;;5056503;28;20044;-64
2023/03/15 11:13:19;;;;;;;11.75;3.08;;;10.50;99.90;;;;;;5055510;28;20050;-64
2023/03/15 11:16:05;;;;;;;9.43;2.42;;;10.50;99.90;;;;;;5056399;28;20025;-65
2023/03/15 11:18:35;;;;;;;6.35;2.30;;;10.80;99.90;;;;;;5056369;28;20469;-65
2023/03/15 11:21:07;;;;;;;11.32;2.97;;;11.80;99.90;;;;;;5056502;28;20079;-65
2023/03/15 11:23:36;;;;;;;12.05;3.50;;;11.10;99.90;;;;;;5056480;28;20032;-65
2023/03/15 11:26:03;;;;;;;14.93;3.35;;;10.80;99.90;;;;;;5055158;28;20111;-65
2023/03/15 11:28:31;;;;;;;12.82;3.35;;;10.80;99.90;;;;;;5055913;28;20076;-65
2023/03/15 11:30:59;;;;;;;9.82;3.17;;;11.10;99.90;;;;;;5055918;28;20065;-65
2023/03/15 11:33:44;;;;;;;12.95;3.38;;;10.60;99.90;;;;;;5056172;28;20494;-65
2023/03/15 11:36:16;;;;;;;7.25;2.22;;;10.70;99.90;;;;;;5055943;28;20025;-65
2023/03/15 11:38:43;;;;;;;9.20;2.58;;;10.60;99.90;;;;;;5056028;28;20040;-65
2023/03/15 11:44:36;;;;;;;8.60;2.50;;;10.50;99.90;;;;;;5110986;27;20115;-64
2023/03/15 11:47:22;;;;;;;7.90;2.45;;;9.90;99.90;;;;;;5110995;28;20034;-64
2023/03/15 11:49:52;;;;;;;8.63;2.20;;;10.30;99.90;;;;;;5111239;28;20028;-64
2023/03/15 11:52:21;;;;;;;11.65;2.47;;;10.30;99.90;;;;;;5111086;28;20050;-64
2023/03/15 11:54:47;;;;;;;8.65;2.38;;;10.20;99.90;;;;;;5110962;28;20477;-64
2023/03/15 11:57:35;;;;;;;10.60;2.55;;;10.10;99.90;;;;;;5110740;28;20093;-64
2023/03/15 12:00:22;;;;;;;7.20;1.90;;;10.10;99.90;;;;;;5110945;28;20027;-64
2023/03/15 12:02:50;;;;;;;9.63;2.13;;;10.40;99.90;;;;;;5110774;28;20127;-64
2023/03/15 12:05:40;;;;;;;9.05;1.60;;;10.00;99.90;;;;;;5110676;28;20028;-64
2023/03/15 12:08:38;;;;;;;7.80;1.75;;;10.20;99.90;;;;;;5110523;28;20066;-64
2023/03/15 12:11:11;;;;;;;6.90;2.15;;;10.40;99.90;;;;;;5110636;28;20452;-64
2023/03/15 12:13:36;;;;;;;10.35;2.05;;;9.80;99.90;;;;;;5110224;28;20115;-64
2023/03/15 12:16:05;;;;;;;6.80;2.03;;;9.80;99.90;;;;;;5110623;28;20505;-64
2023/03/15 12:18:41;;;;;;;5.38;1.88;;;10.20;99.90;;;;;;5110403;28;20434;-64
2023/03/15 12:21:12;;;;;;;7.65;2.25;;;10.10;99.90;;;;;;5110720;28;20020;-64
2023/03/15 12:23:43;;;;;;;9.65;2.45;;;10.30;99.90;;;;;;5110212;28;20023;-64
2023/03/15 12:26:32;;;;;;;7.78;2.17;;;10.60;99.90;;;;;;5110239;28;20111;-64
2023/03/15 12:29:05;;;;;;;5.47;2.03;;;10.80;99.90;;;;;;5110254;28;20089;-64
2023/03/15 12:31:55;;;;;;;6.72;2.10;;;10.10;99.90;;;;;;5110272;28;20026;-64
2023/03/15 12:34:28;;;;;;;6.30;2.33;;;10.60;99.90;;;;;;5109943;28;20024;-65
2023/03/15 12:37:01;;;;;;;8.55;2.20;;;10.80;99.90;;;;;;5109967;28;20024;-65
2023/03/15 12:39:45;;;;;;;8.57;1.67;;;10.90;99.90;;;;;;5110032;28;20028;-64
2023/03/15 12:42:14;;;;;;;7.40;2.08;;;10.80;99.90;;;;;;5109664;28;20112;-65
2023/03/15 12:44:42;;;;;;;9.65;2.10;;;10.70;99.90;;;;;;5108891;28;20024;-64
2023/03/15 12:47:10;;;;;;;6.85;2.08;;;10.70;99.90;;;;;;5109991;28;20070;-64
2023/03/15 12:49:44;;;;;;;5.88;2.00;;;10.10;99.90;;;;;;5109689;28;20056;-64
2023/03/15 12:52:18;;;;;;;6.13;1.77;;;10.20;99.90;;;;;;5109622;28;20496;-64
2023/03/15 12:54:50;;;;;;;5.95;1.90;;;10.60;99.90;;;;;;5101009;28;20031;-64
2023/03/15 12:57:25;;;;;;;4.95;1.63;;;10.90;99.00;;;;;;5096202;28;20145;-64